createdAt,value
2022-12-27T00:01:29.406Z,100565.78
2022-12-27T00:03:56.936Z,100567.50
2022-12-27T00:06:26.092Z,100563.81
2022-12-27T00:08:54.412Z,100554.19
2022-12-27T00:11:24.773Z,100554.06
2022-12-27T00:13:52.487Z,100558.44
2022-12-27T00:16:21.426Z,100561.25
2022-12-27T00:18:49.564Z,100552.34
2022-12-27T00:21:18.398Z,100552.47
2022-12-27T00:23:48.723Z,100555.91
2022-12-27T00:26:22.138Z,100564.66
2022-12-27T00:28:50.384Z,100549.06
2022-12-27T00:31:19.846Z,100558.31
2022-12-27T00:33:50.094Z,100564.53
2022-12-27T00:36:21.053Z,100560.88
2022-12-27T00:38:49.882Z,100548.94
2022-12-27T00:41:18.345Z,100561.72
2022-12-27T00:43:46.333Z,100570.63
2022-12-27T00:46:14.036Z,100582.38
2022-12-27T00:48:42.467Z,100583.09
2022-12-27T00:51:16.238Z,100576.84
2022-12-27T00:53:44.046Z,100591.16
2022-12-27T00:56:18.520Z,100595.66
2022-12-27T00:58:46.891Z,100590.28
2022-12-27T01:01:17.916Z,100593.81
2022-12-27T01:03:46.424Z,100593.81
2022-12-27T01:06:16.324Z,100588.59
2022-12-27T01:08:44.766Z,100576.53
2022-12-27T01:11:13.228Z,100597.50
2022-12-27T01:13:41.508Z,100603.72
2022-12-27T01:16:18.870Z,100618.00
2022-12-27T01:18:47.354Z,100605.22
2022-12-27T01:23:43.552Z,100621.81
2022-12-27T01:26:13.586Z,100614.88
2022-12-27T01:28:41.028Z,100608.75
2022-12-27T01:31:18.205Z,100608.25
2022-12-27T01:33:46.025Z,100605.09
2022-12-27T01:36:22.359Z,100615.00
2022-12-27T01:38:50.112Z,100615.31
2022-12-27T01:41:41.143Z,100619.00
2022-12-27T01:44:39.822Z,100626.91
2022-12-27T01:47:13.081Z,100605.22
2022-12-27T01:49:58.250Z,100619.84
2022-12-27T01:52:47.686Z,100622.53
2022-12-27T01:55:27.589Z,100616.19
2022-12-27T01:58:01.589Z,100615.31
2022-12-27T02:00:31.842Z,100618.13
2022-12-27T02:03:01.555Z,100621.53
2022-12-27T02:05:29.196Z,100635.84
2022-12-27T02:08:08.834Z,100629.59
2022-12-27T02:10:36.892Z,100618.53
2022-12-27T02:13:06.551Z,100632.28
2022-12-27T02:15:34.075Z,100642.19
2022-12-27T02:18:01.743Z,100633.16
2022-12-27T02:20:38.672Z,100634.50
2022-12-27T02:23:36.140Z,100651.09
2022-12-27T02:26:37.681Z,100643.03
2022-12-27T02:29:29.407Z,100641.22
2022-12-27T02:32:00.015Z,100631.97
2022-12-27T02:35:01.359Z,100645.72
2022-12-27T02:37:32.955Z,100643.91
2022-12-27T02:40:22.334Z,100650.94
2022-12-27T02:43:10.237Z,100657.47
2022-12-27T02:46:02.553Z,100655.28
2022-12-27T02:48:48.672Z,100683.34
2022-12-27T02:52:16.048Z,100689.56
2022-12-27T02:55:01.719Z,100678.81
2022-12-27T02:57:48.314Z,100656.00
2022-12-27T03:00:40.047Z,100661.69
2022-12-27T03:03:47.577Z,100683.19
2022-12-27T03:06:40.263Z,100689.41
2022-12-27T03:10:03.364Z,100688.56
2022-12-27T03:13:08.357Z,100677.00
2022-12-27T03:15:56.331Z,100677.69
2022-12-27T03:18:48.755Z,100683.19
2022-12-27T03:21:49.668Z,100688.56
2022-12-27T03:24:42.853Z,100685.88
2022-12-27T03:27:28.362Z,100683.19
2022-12-27T03:30:17.156Z,100688.72
2022-12-27T03:33:13.593Z,100693.50
2022-12-27T03:36:09.841Z,100707.38
2022-12-27T03:38:47.624Z,100725.34
2022-12-27T03:41:41.718Z,100724.50
2022-12-27T03:44:24.476Z,100710.03
2022-12-27T03:47:13.599Z,100717.28
2022-12-27T03:49:54.733Z,100725.00
2022-12-27T03:52:44.021Z,100744.97
2022-12-27T03:55:11.984Z,100748.69
2022-12-27T03:57:40.838Z,100748.69
2022-12-27T04:00:09.078Z,100749.53
2022-12-27T04:02:44.209Z,100728.16
2022-12-27T04:05:11.983Z,100730.72
2022-12-27T04:07:39.301Z,100733.41
2022-12-27T04:10:25.228Z,100741.47
2022-12-27T04:13:11.284Z,100737.94
2022-12-27T04:15:57.155Z,100742.28
2022-12-27T04:18:43.047Z,100741.13
2022-12-27T04:21:29.135Z,100751.38
2022-12-27T04:24:15.321Z,100737.47
2022-12-27T04:27:01.220Z,100741.59
2022-12-27T04:29:47.260Z,100745.13
2022-12-27T04:32:33.223Z,100740.63
2022-12-27T04:35:00.564Z,100739.75
2022-12-27T04:37:27.913Z,100750.34
2022-12-27T04:40:13.971Z,100731.34
2022-12-27T04:43:01.611Z,100750.50
2022-12-27T04:45:47.523Z,100757.59
2022-12-27T04:48:34.990Z,100753.88
2022-12-27T04:51:21.282Z,100764.63
2022-12-27T04:54:07.114Z,100766.47
2022-12-27T04:56:34.527Z,100761.63
2022-12-27T04:59:20.319Z,100762.81
2022-12-27T05:02:07.200Z,100749.91
2022-12-27T05:04:37.598Z,100765.50
2022-12-27T05:07:28.099Z,100768.19
2022-12-27T05:10:15.199Z,100762.81
2022-12-27T05:13:01.260Z,100751.63
2022-12-27T05:15:28.651Z,100753.56
2022-12-27T05:17:57.483Z,100752.72
2022-12-27T05:20:24.982Z,100765.50
2022-12-27T05:23:11.077Z,100755.28
2022-12-27T05:25:43.350Z,100776.41
2022-12-27T05:28:12.027Z,100787.84
2022-12-27T05:30:42.043Z,100785.44
2022-12-27T05:33:09.438Z,100791.38
2022-12-27T05:35:36.874Z,100791.38
2022-12-27T05:38:05.627Z,100796.75
2022-12-27T05:40:33.100Z,100798.47
2022-12-27T05:43:02.961Z,100792.22
2022-12-27T05:45:30.678Z,100788.56
2022-12-27T05:47:59.872Z,100784.16
2022-12-27T05:50:27.664Z,100776.97
2022-12-27T05:53:11.076Z,100779.66
2022-12-27T05:55:38.875Z,100771.59
2022-12-27T05:58:07.132Z,100766.75
2022-12-27T06:00:34.485Z,100780.50
2022-12-27T06:03:03.199Z,100780.06
2022-12-27T06:05:30.693Z,100794.78
2022-12-27T06:07:58.150Z,100801.16
2022-12-27T06:10:25.569Z,100811.91
2022-12-27T06:12:52.917Z,100814.59
2022-12-27T06:15:20.243Z,100822.66
2022-12-27T06:17:47.671Z,100831.56
2022-12-27T06:20:15.155Z,100836.94
2022-12-27T06:22:43.244Z,100831.56
2022-12-27T06:25:14.385Z,100838.88
2022-12-27T06:27:41.945Z,100843.16
2022-12-27T06:30:12.213Z,100845.84
2022-12-27T06:32:39.745Z,100856.47
2022-12-27T06:35:07.459Z,100862.94
2022-12-27T06:37:34.914Z,100866.50
2022-12-27T06:40:02.353Z,100866.25
2022-12-27T06:42:30.992Z,100870.03
2022-12-27T06:44:58.408Z,100873.44
2022-12-27T06:47:25.782Z,100875.53
2022-12-27T06:49:53.230Z,100881.38
2022-12-27T06:52:22.117Z,100881.88
2022-12-27T06:54:49.664Z,100886.88
2022-12-27T06:57:16.984Z,100884.56
2022-12-27T06:59:47.003Z,100909.13
2022-12-27T07:02:19.699Z,100896.16
2022-12-27T07:04:47.115Z,100912.66
2022-12-27T07:07:16.037Z,100916.31
2022-12-27T07:09:43.517Z,100914.47
2022-12-27T07:12:10.936Z,100930.59
2022-12-27T07:14:38.481Z,100931.47
2022-12-27T07:17:05.917Z,100938.66
2022-12-27T07:19:33.331Z,100938.19
2022-12-27T07:22:00.694Z,100945.75
2022-12-27T07:24:28.068Z,100948.44
2022-12-27T07:26:55.769Z,100959.19
2022-12-27T07:29:23.233Z,100963.72
2022-12-27T07:31:50.667Z,100962.72
2022-12-27T07:34:17.996Z,100968.09
2022-12-27T07:36:45.323Z,100969.09
2022-12-27T07:39:12.760Z,100969.81
2022-12-27T07:41:40.209Z,100978.63
2022-12-27T07:44:08.115Z,100973.25
2022-12-27T07:46:36.152Z,100984.72
2022-12-27T07:49:03.546Z,100987.53
2022-12-27T07:51:30.978Z,100994.63
2022-12-27T07:53:58.500Z,100990.22
2022-12-27T07:56:28.111Z,101000.72
2022-12-27T07:59:01.017Z,100991.81
2022-12-27T08:01:50.910Z,100992.78
2022-12-27T08:04:18.400Z,101000.13
2022-12-27T08:06:46.513Z,101001.22
2022-12-27T08:09:26.188Z,101002.91
2022-12-27T08:11:53.603Z,101003.91
2022-12-27T08:14:21.097Z,101007.31
2022-12-27T08:16:48.555Z,101006.59
2022-12-27T08:19:15.950Z,101016.47
2022-12-27T08:21:43.275Z,101014.78
2022-12-27T08:24:10.660Z,101018.44
2022-12-27T08:26:38.088Z,101036.38
2022-12-27T08:29:05.503Z,101035.66
2022-12-27T08:31:32.858Z,101033.94
2022-12-27T08:34:00.219Z,101043.94
2022-12-27T08:39:14.967Z,101041.66
2022-12-27T08:41:42.378Z,101042.25
2022-12-27T08:44:10.709Z,101059.97
2022-12-27T08:46:38.147Z,101053.72
2022-12-27T08:49:06.324Z,101055.94
2022-12-27T08:51:40.700Z,101062.75
2022-12-27T08:54:09.211Z,101070.81
2022-12-27T08:56:36.922Z,101078.88
2022-12-27T08:59:04.560Z,101072.94
2022-12-27T09:01:32.765Z,101089.91
2022-12-27T09:04:00.421Z,101085.50
2022-12-27T09:06:27.983Z,101073.53
2022-12-27T09:08:56.063Z,101084.78
2022-12-27T09:11:34.643Z,101076.44
2022-12-27T09:14:04.812Z,101092.09
2022-12-27T09:16:34.231Z,101084.03
2022-12-27T09:19:02.319Z,101067.66
2022-12-27T09:21:31.852Z,101077.91
2022-12-27T09:23:59.937Z,101078.91
2022-12-27T09:26:29.589Z,101069.13
2022-12-27T09:28:57.855Z,101062.41
2022-12-27T09:31:25.498Z,101065.19
2022-12-27T09:33:54.078Z,101071.94
2022-12-27T09:36:27.878Z,101062.91
2022-12-27T09:38:57.596Z,101078.28
2022-12-27T09:44:43.727Z,101073.75
2022-12-27T09:47:15.837Z,101061.31
2022-12-27T09:49:46.535Z,101065.69
2022-12-27T09:52:20.146Z,101064.34
2022-12-27T09:55:05.189Z,101067.66
2022-12-27T09:57:42.045Z,101055.69
2022-12-27T10:00:19.441Z,101059.84
2022-12-27T10:03:05.967Z,101056.66
2022-12-27T10:05:36.539Z,101064.00
2022-12-27T10:08:53.118Z,101065.94
2022-12-27T10:11:38.815Z,101063.25
2022-12-27T10:14:30.223Z,101073.88
2022-12-27T10:17:07.736Z,101077.53
2022-12-27T10:19:48.105Z,101083.88
2022-12-27T10:22:18.271Z,101075.44
2022-12-27T10:24:53.337Z,101087.66
2022-12-27T10:27:26.335Z,101084.97
2022-12-27T10:29:55.715Z,101084.13
2022-12-27T10:32:23.569Z,101089.50
2022-12-27T10:35:01.238Z,101078.00
2022-12-27T10:37:29.247Z,101097.66
2022-12-27T10:40:10.135Z,101093.03
2022-12-27T10:42:59.313Z,101105.72
2022-12-27T10:45:39.506Z,101102.41
2022-12-27T10:48:16.349Z,101106.59
2022-12-27T10:50:48.321Z,101111.09
2022-12-27T10:53:30.906Z,101112.06
2022-12-27T10:56:26.855Z,101115.72
2022-12-27T10:59:18.945Z,101110.34
2022-12-27T11:02:18.503Z,101105.09
2022-12-27T11:04:59.178Z,101094.84
2022-12-27T11:07:32.978Z,101101.09
2022-12-27T11:10:15.938Z,101102.19
2022-12-27T11:12:59.514Z,101117.78
2022-12-27T11:15:29.696Z,101114.28
2022-12-27T11:18:18.555Z,101116.97
2022-12-27T11:20:55.170Z,101117.78
2022-12-27T11:23:27.020Z,101106.69
2022-12-27T11:25:57.338Z,101118.81
2022-12-27T11:28:38.471Z,101109.50
2022-12-27T11:31:14.951Z,101126.22
2022-12-27T11:33:49.233Z,101118.06
2022-12-27T11:36:26.342Z,101124.28
2022-12-27T11:38:53.850Z,101127.81
2022-12-27T11:41:39.976Z,101122.56
2022-12-27T11:44:47.000Z,101125.25
2022-12-27T11:47:39.240Z,101122.56
2022-12-27T11:50:24.985Z,101128.06
2022-12-27T11:53:20.512Z,101120.84
2022-12-27T11:55:59.730Z,101121.84
2022-12-27T11:58:27.145Z,101124.53
2022-12-27T12:01:40.876Z,101126.34
2022-12-27T12:04:33.347Z,101140.75
2022-12-27T12:07:38.695Z,101132.81
2022-12-27T12:10:15.363Z,101140.88
2022-12-27T12:13:07.928Z,101135.31
2022-12-27T12:15:49.918Z,101155.25
2022-12-27T12:18:47.252Z,101160.50
2022-12-27T12:21:30.627Z,101156.56
2022-12-27T12:24:16.592Z,101158.81
2022-12-27T12:27:19.831Z,101144.75
2022-12-27T12:29:59.259Z,101150.88
2022-12-27T12:32:41.665Z,101152.81
2022-12-27T12:35:32.798Z,101162.56
2022-12-27T12:38:05.977Z,101161.72
2022-12-27T12:41:14.245Z,101164.41
2022-12-27T12:44:03.479Z,101159.88
2022-12-27T12:46:45.481Z,101164.88
2022-12-27T12:49:25.828Z,101178.69
2022-12-27T12:52:13.135Z,101193.09
2022-12-27T12:55:00.993Z,101191.25
2022-12-27T12:57:28.404Z,101191.25
2022-12-27T13:00:40.246Z,101191.38
2022-12-27T13:03:28.900Z,101190.41
2022-12-27T13:06:19.861Z,101199.44
2022-12-27T13:09:19.088Z,101206.50
2022-12-27T13:12:09.582Z,101212.84
2022-12-27T13:14:39.611Z,101215.44
2022-12-27T13:17:13.960Z,101209.88
2022-12-27T13:19:47.000Z,101226.50
2022-12-27T13:22:32.937Z,101225.53
2022-12-27T13:25:06.216Z,101221.03
2022-12-27T13:27:53.413Z,101220.16
2022-12-27T13:30:59.129Z,101223.72
2022-12-27T13:33:51.572Z,101219.31
2022-12-27T13:36:28.146Z,101224.69
2022-12-27T13:39:05.643Z,101224.91
2022-12-27T13:41:48.914Z,101242.63
2022-12-27T13:44:22.001Z,101250.66
2022-12-27T13:47:15.291Z,101226.22
2022-12-27T13:49:59.117Z,101240.38
2022-12-27T13:52:39.735Z,101248.84
2022-12-27T13:55:57.542Z,101253.81
2022-12-27T13:58:37.036Z,101266.91
2022-12-27T14:01:13.839Z,101260.66
2022-12-27T14:03:44.075Z,101256.03
2022-12-27T14:06:20.500Z,101262.38
2022-12-27T14:09:00.141Z,101262.50
2022-12-27T14:11:47.661Z,101261.84
2022-12-27T14:14:18.382Z,101268.72
2022-12-27T14:17:07.457Z,101282.25
2022-12-27T14:20:02.300Z,101290.31
2022-12-27T14:23:06.004Z,101290.22
2022-12-27T14:26:04.292Z,101298.25
2022-12-27T14:29:04.024Z,101295.56
2022-12-27T14:31:53.139Z,101279.06
2022-12-27T14:34:48.414Z,101299.22
2022-12-27T14:37:34.451Z,101294.84
2022-12-27T14:40:34.449Z,101307.41
2022-12-27T14:43:34.866Z,101291.75
2022-12-27T14:46:33.534Z,101310.19
2022-12-27T14:49:13.012Z,101317.28
2022-12-27T14:52:05.914Z,101311.91
2022-12-27T14:54:51.796Z,101318.13
2022-12-27T14:57:42.432Z,101314.59
2022-12-27T15:00:17.329Z,101307.13
2022-12-27T15:03:03.652Z,101323.72
2022-12-27T15:05:40.267Z,101321.78
2022-12-27T15:08:32.783Z,101331.66
2022-12-27T15:11:42.134Z,101339.63
2022-12-27T15:14:24.821Z,101347.78
2022-12-27T15:17:04.303Z,101346.31
2022-12-27T15:20:07.967Z,101362.19
2022-12-27T15:22:59.285Z,101364.38
2022-12-27T15:25:45.138Z,101356.31
2022-12-27T15:28:13.179Z,101353.16
2022-12-27T15:30:52.339Z,101372.91
2022-12-27T15:33:19.747Z,101375.59
2022-12-27T15:35:59.192Z,101372.91
2022-12-27T15:38:41.108Z,101379.25
2022-12-27T15:41:36.121Z,101376.56
2022-12-27T15:44:42.155Z,101367.53
2022-12-27T15:47:36.178Z,101375.72
2022-12-27T15:50:26.127Z,101381.22
2022-12-27T15:52:56.323Z,101386.44
2022-12-27T15:55:45.825Z,101381.66
2022-12-27T15:58:21.331Z,101387.56
2022-12-27T16:01:10.817Z,101379.50
2022-12-27T16:03:39.276Z,101379.06
2022-12-27T16:06:09.038Z,101387.13
2022-12-27T16:08:40.242Z,101385.38
2022-12-27T16:11:12.663Z,101389.59
2022-12-27T16:13:43.385Z,101393.91
2022-12-27T16:16:32.637Z,101392.94
2022-12-27T16:18:59.952Z,101387.56
2022-12-27T16:21:38.426Z,101385.09
2022-12-27T16:24:31.879Z,101396.56
2022-12-27T16:27:07.732Z,101395.25
2022-12-27T16:29:37.154Z,101405.91
2022-12-27T16:32:20.947Z,101426.88
2022-12-27T16:34:51.809Z,101430.63
2022-12-27T16:37:29.374Z,101435.88
2022-12-27T16:40:18.392Z,101427.41
2022-12-27T16:42:57.641Z,101435.13
2022-12-27T16:45:51.599Z,101436.00
2022-12-27T16:48:51.085Z,101422.09
2022-12-27T16:51:33.757Z,101438.78
2022-12-27T16:54:16.727Z,101456.63
2022-12-27T16:56:48.211Z,101455.66
2022-12-27T16:59:54.096Z,101451.34
2022-12-27T17:02:40.219Z,101455.97
2022-12-27T17:05:28.077Z,101457.56
2022-12-27T17:07:55.971Z,101462.94
2022-12-27T17:10:34.875Z,101454.13
2022-12-27T17:13:20.617Z,101471.09
2022-12-27T17:15:57.555Z,101487.09
2022-12-27T17:18:45.327Z,101485.38
2022-12-27T17:21:29.636Z,101485.50
2022-12-27T17:24:01.052Z,101481.94
2022-12-27T17:27:16.783Z,101480.97
2022-12-27T17:30:13.622Z,101485.38
2022-12-27T17:33:06.504Z,101477.34
2022-12-27T17:35:58.660Z,101478.47
2022-12-27T17:38:50.556Z,101488.94
2022-12-27T17:41:51.936Z,101479.06
2022-12-27T17:44:40.440Z,101478.09
2022-12-27T17:47:37.172Z,101472.81
2022-12-27T17:50:12.308Z,101473.78
2022-12-27T17:53:34.405Z,101489.91
2022-12-27T17:56:29.706Z,101473.78
2022-12-27T17:59:10.436Z,101476.47
2022-12-27T18:01:54.548Z,101484.63
2022-12-27T18:04:28.616Z,101472.47
2022-12-27T18:07:07.669Z,101483.66
2022-12-27T18:09:44.582Z,101477.44
2022-12-27T18:12:38.028Z,101481.94
2022-12-27T18:15:09.539Z,101487.31
2022-12-27T18:17:38.392Z,101497.19
2022-12-27T18:20:28.105Z,101502.47
2022-12-27T18:23:01.686Z,101500.63
2022-12-27T18:25:51.463Z,101497.94
2022-12-27T18:28:33.706Z,101506.00
2022-12-27T18:31:09.330Z,101492.75
2022-12-27T18:34:06.922Z,101502.47
2022-12-27T18:36:44.009Z,101506.13
2022-12-27T18:39:17.756Z,101507.94
2022-12-27T18:41:49.817Z,101493.94
2022-12-27T18:44:26.819Z,101503.31
2022-12-27T18:46:57.893Z,101480.50
2022-12-27T18:49:25.263Z,101504.28
2022-12-27T18:51:55.054Z,101494.50
2022-12-27T18:54:28.473Z,101494.50
2022-12-27T18:56:57.929Z,101485.88
2022-12-27T18:59:31.274Z,101484.06
2022-12-27T19:02:23.117Z,101501.59
2022-12-27T19:05:18.909Z,101498.06
2022-12-27T19:08:08.820Z,101499.00
2022-12-27T19:10:37.144Z,101492.22
2022-12-27T19:13:04.781Z,101509.84
2022-12-27T19:15:35.155Z,101513.31
2022-12-27T19:18:18.783Z,101515.09
2022-12-27T19:20:54.301Z,101523.16
2022-12-27T19:23:43.320Z,101533.03
2022-12-27T19:26:16.580Z,101527.66
2022-12-27T19:28:45.544Z,101524.97
2022-12-27T19:31:19.369Z,101526.03
2022-12-27T19:33:56.256Z,101530.44
2022-12-27T19:36:32.102Z,101519.25
2022-12-27T19:39:01.030Z,101540.22
2022-12-27T19:41:29.959Z,101541.09
2022-12-27T19:43:57.406Z,101542.91
2022-12-27T19:46:30.747Z,101544.72
2022-12-27T19:51:46.040Z,101533.25
2022-12-27T19:54:18.143Z,101536.88
2022-12-27T19:56:45.966Z,101536.03
2022-12-27T19:59:16.412Z,101538.59
2022-12-27T20:01:45.613Z,101527.31
2022-12-27T20:04:15.081Z,101535.16
2022-12-27T20:06:43.988Z,101543.97
2022-12-27T20:09:20.167Z,101555.56
2022-12-27T20:11:49.612Z,101545.81
2022-12-27T20:14:18.000Z,101552.88
2022-12-27T20:16:47.090Z,101558.38
2022-12-27T20:19:16.678Z,101540.75
2022-12-27T20:21:44.325Z,101547.53
2022-12-27T20:24:13.072Z,101535.06
2022-12-27T20:26:41.740Z,101544.06
2022-12-27T20:29:11.306Z,101557.50
2022-12-27T20:31:44.728Z,101557.41
2022-12-27T20:34:13.241Z,101550.22
2022-12-27T20:36:42.105Z,101559.22
2022-12-27T20:39:09.812Z,101555.69
2022-12-27T20:41:38.490Z,101557.50
2022-12-27T20:44:06.127Z,101566.31
2022-12-27T20:46:33.901Z,101564.59
2022-12-27T20:49:01.442Z,101561.91
2022-12-27T20:51:31.806Z,101556.84
2022-12-27T20:54:02.026Z,101561.34
2022-12-27T20:56:29.830Z,101567.16
2022-12-27T20:58:57.588Z,101580.50
2022-12-27T21:01:26.770Z,101587.78
2022-12-27T21:03:56.137Z,101571.78
2022-12-27T21:06:27.288Z,101574.47
2022-12-27T21:08:57.537Z,101585.97
2022-12-27T21:11:28.915Z,101570.94
2022-12-27T21:13:56.605Z,101583.38
2022-12-27T21:16:27.192Z,101567.59
2022-12-27T21:18:55.845Z,101563.63
2022-12-27T21:21:28.466Z,101565.56
2022-12-27T21:23:58.057Z,101573.59
2022-12-27T21:26:28.727Z,101562.63
2022-12-27T21:28:57.545Z,101570.94
2022-12-27T21:31:25.830Z,101568.84
2022-12-27T21:33:53.542Z,101596.03
2022-12-27T21:36:24.447Z,101595.09
2022-12-27T21:38:52.408Z,101587.91
2022-12-27T21:41:29.052Z,101587.03
2022-12-27T21:43:57.071Z,101587.03
2022-12-27T21:46:27.089Z,101571.44
2022-12-27T21:48:59.960Z,101587.22
2022-12-27T21:51:28.758Z,101586.47
2022-12-27T21:53:56.763Z,101597.78
2022-12-27T21:56:24.990Z,101595.09
2022-12-27T21:58:55.479Z,101582.06
2022-12-27T22:01:52.111Z,101579.50
2022-12-27T22:04:21.212Z,101591.53
2022-12-27T22:06:48.967Z,101591.63
2022-12-27T22:09:16.620Z,101589.81
2022-12-27T22:11:44.142Z,101582.81
2022-12-27T22:14:11.601Z,101578.63
2022-12-27T22:16:39.776Z,101589.06
2022-12-27T22:19:09.248Z,101597.97
2022-12-27T22:21:37.711Z,101604.31
2022-12-27T22:24:05.525Z,101597.97
2022-12-27T22:26:37.268Z,101590.44
2022-12-27T22:29:06.576Z,101590.22
2022-12-27T22:31:38.241Z,101589.06
2022-12-27T22:34:06.520Z,101580.16
2022-12-27T22:36:34.954Z,101584.66
2022-12-27T22:39:02.605Z,101579.59
2022-12-27T22:41:35.498Z,101597.13
2022-12-27T22:44:06.217Z,101596.25
2022-12-27T22:49:21.754Z,101571.75
2022-12-27T22:51:49.185Z,101583.78
2022-12-27T22:54:16.620Z,101580.56
2022-12-27T22:56:44.295Z,101570.06
2022-12-27T22:59:14.193Z,101576.81
2022-12-27T23:01:42.924Z,101577.56
2022-12-27T23:04:12.199Z,101569.72
2022-12-27T23:06:40.555Z,101557.16
2022-12-27T23:09:08.480Z,101548.34
2022-12-27T23:11:38.406Z,101563.38
2022-12-27T23:14:09.986Z,101573.25
2022-12-27T23:16:39.421Z,101565.31
2022-12-27T23:19:07.863Z,101569.81
2022-12-27T23:21:35.609Z,101563.28
2022-12-27T23:24:03.551Z,101555.78
2022-12-27T23:26:31.000Z,101552.88
2022-12-27T23:28:58.635Z,101550.78
2022-12-27T23:31:27.178Z,101548.84
2022-12-27T23:33:54.929Z,101553.38
2022-12-27T23:36:22.887Z,101545.97
2022-12-27T23:38:51.234Z,101541.31
2022-12-27T23:41:21.553Z,101540.50
2022-12-27T23:43:54.918Z,101549.72
2022-12-27T23:46:34.551Z,101546.06
2022-12-27T23:49:03.855Z,101533.06
2022-12-27T23:51:32.130Z,101532.09
2022-12-27T23:53:59.804Z,101544.13
2022-12-27T23:56:30.574Z,101550.25
2022-12-27T23:58:59.672Z,101545.09
